Maljamar, New Mexico
Current Conditions -  °F | °C
As of 6:55 PM on Monday 20 Oct 2014 (Local Time) from KHOB Reporting Station
Clear Clear  
Wind Chill: 66°   Ceiling: Unl
Heat Index: 66°   Visibility: 10mi
Dew Point: 50°   Wind: 0mph
Humidity: 56%   Direction: NA
Pressure: 30.1"   Gusts: NA
Location:  32.86°N, 103.77°W
Report Text: KHOB 210055Z AUTO 00000KT 10SM CLR 19/10 A3010 RMK AO2
Loading
Personal Weather Stations






























Interactive Weather Map
Tropical Storm Tracking
New forecast layout! Learn more

10-Day Weather Forecast

Advertisements
Track Severe Weather on mobile